Costa Luminosa — ICGU — position and weather

sailwx.info

Track history (hours):
 
Tides and Currents Weather Stations Pressure Air Temp Water Temp Dewpoint Dewpoint Depression Visibility Wind Speed Wind Dir Waves Ship Positions

Costa Luminosa

Last reported at 2017-Oct-17 20:18 UTC. Time now 2017-Oct-18 09:15 UTC.
Position N 37°31' E 023°40'.

Length 294 m; draft 8 m.

Type: Passenger vessel. MMSI: 247257900.

Date/timePositionNaut miles runAvg speedWind from/ knotsBaromVisibWave heightAir tempDewpointWater temp
2017-Oct-17 20:18N 37°31' E 023°40'516.9
2017-Oct-17 20:00N 37°36' E 023°42'816.1
2017-Oct-17 19:30N 37°44' E 023°40'816.4
2017-Oct-17 19:00N 37°51' E 023°36'5 9.7
2017-Oct-17 18:31N 37°56' E 023°37'0 0.6
2017-Oct-17 17:59N 37°56' E 023°37'0 0.0
2017-Oct-17 17:29N 37°56' E 023°37'0 0.0
2017-Oct-17 16:59N 37°56' E 023°37'0 0.0
2017-Oct-17 16:29N 37°56' E 023°37'0 0.0
2017-Oct-17 15:59N 37°56' E 023°37'0 0.0
2017-Oct-17 15:29N 37°56' E 023°37'0 0.0
2017-Oct-17 14:59N 37°56' E 023°37'0 0.0
2017-Oct-17 14:29N 37°56' E 023°37'0 0.0
2017-Oct-17 13:59N 37°56' E 023°37'0 0.0
2017-Oct-17 13:29N 37°56' E 023°37'0 0.0
2017-Oct-17 12:59N 37°56' E 023°37'0 0.0
2017-Oct-17 12:29N 37°56' E 023°37'0 0.0
2017-Oct-17 11:59N 37°56' E 023°37'0 0.0
2017-Oct-17 11:17N 37°56' E 023°37'0 0.0
2017-Oct-17 10:59N 37°56' E 023°37'0 0.0
2017-Oct-17 10:29N 37°56' E 023°37'0 0.0
2017-Oct-17 09:59N 37°56' E 023°37'0 0.6
2017-Oct-17 09:30N 37°56' E 023°37'1 2.0
2017-Oct-17 09:00N 37°55' E 023°37'815.1
2017-Oct-17 08:31N 37°48' E 023°40'918.3
2017-Oct-17 08:00N 37°40' E 023°45'918.0
2017-Oct-17 07:30N 37°31' E 023°43'918.0
2017-Oct-17 06:59N 37°22' E 023°40'4017.6
2017-Oct-17 04:45N 36°44' E 023°24'7015.4
2017-Oct-17 00:12N 36°30' E 021°59'419.5
2017-Oct-17 00:01N 36°31' E 021°55'1019.7
2017-Oct-16 23:31N 36°35' E 021°44'5519.0
2017-Oct-16 20:38N 37°11' E 020°52'218.9
2017-Oct-16 20:31N 37°13' E 020°51'2320.4
2017-Oct-16 19:22N 37°33' E 020°36'720.9
2017-Oct-16 19:01N 37°39' E 020°31'1121.2
2017-Oct-16 18:30N 37°49' E 020°24'5920.9
2017-Oct-16 15:42N 38°39' E 019°47'17520.7
2017-Oct-16 07:16N 40°59' E 017°31'621.4
2017-Oct-16 07:01N 41°02' E 017°24'26 4.4
2017-Oct-16 01:15N 41°09' E 016°51'2 6.6
2017-Oct-16 01:00N 41°10' E 016°50'816.7
2017-Oct-16 00:30N 41°17' E 016°45'3821.0
2017-Oct-15 22:41N 41°51' E 016°20'422.2
2017-Oct-15 22:30N 41°54' E 016°18'3222.0
2017-Oct-15 21:02N 42°20' E 015°51'121.1
2017-Oct-15 21:00N 42°20' E 015°51'1121.5
2017-Oct-15 20:30N 42°29' E 015°42'1121.4
2017-Oct-15 20:00N 42°38' E 015°33'1121.5
2017-Oct-15 19:29N 42°47' E 015°24'1221.5
2017-Oct-15 18:55N 42°56' E 015°15'921.5
2017-Oct-15 18:30N 43°04' E 015°07'1121.8
2017-Oct-15 18:00N 43°12' E 014°58'1121.7
2017-Oct-15 17:30N 43°21' E 014°49'1121.7
2017-Oct-15 17:00N 43°29' E 014°40'1121.4
2017-Oct-15 16:30N 43°38' E 014°31'1121.3
2017-Oct-15 16:00N 43°47' E 014°22'1121.2
2017-Oct-15 15:30N 43°55' E 014°14'1121.2
2017-Oct-15 15:00N 44°03' E 014°05'2221.4
2017-Oct-15 14:00N 44°21' E 013°48'1121.3
2017-Oct-15 13:30N 44°30' E 013°40'1121.3
2017-Oct-15 13:00N 44°39' E 013°32'1121.3
2017-Oct-15 12:30N 44°48' E 013°24'1121.1
2017-Oct-15 12:00N 44°57' E 013°16'1121.0
2017-Oct-15 11:30N 45°04' E 013°04'1020.9
2017-Oct-15 11:00N 45°10' E 012°53'1020.9
2017-Oct-15 10:30N 45°17' E 012°41'918.9
2017-Oct-15 10:00N 45°23' E 012°31'511.0
2017-Oct-15 09:30N 45°26' E 012°24'3 5.2
2017-Oct-15 09:00N 45°26' E 012°21'2 3.2
2017-Oct-15 08:30N 45°26' E 012°19'0 0.0
2017-Oct-15 08:00N 45°26' E 012°19'0 0.0
2017-Oct-15 07:30N 45°26' E 012°19'0 0.0
2017-Oct-15 06:59N 45°26' E 012°19'0 0.0
2017-Oct-15 06:29N 45°26' E 012°19'0 0.0
2017-Oct-15 05:57N 45°26' E 012°19'0 0.0
2017-Oct-15 05:29N 45°26' E 012°19'0 0.0
2017-Oct-15 04:59N 45°26' E 012°19'0 0.0
2017-Oct-15 04:29N 45°26' E 012°19'0 0.0
2017-Oct-15 03:59N 45°26' E 012°19'0 0.0
2017-Oct-15 03:29N 45°26' E 012°19'0 0.0
2017-Oct-15 02:59N 45°26' E 012°19'0 0.0
2017-Oct-15 02:30N 45°26' E 012°19'0 0.0
2017-Oct-15 02:00N 45°26' E 012°19'0 0.0
2017-Oct-15 01:27N 45°26' E 012°19'0 0.0
2017-Oct-15 01:00N 45°26' E 012°19'0 0.0
2017-Oct-15 00:29N 45°26' E 012°19'0 0.0
2017-Oct-15 00:00N 45°26' E 012°19'0 0.0
2017-Oct-14 23:29N 45°26' E 012°19'0 0.0
2017-Oct-14 23:00N 45°26' E 012°19'0 0.0
2017-Oct-14 22:30N 45°26' E 012°19'0 0.0
2017-Oct-14 21:59N 45°26' E 012°19'0 0.0
2017-Oct-14 21:29N 45°26' E 012°19'0 0.0
2017-Oct-14 21:00N 45°26' E 012°19'0 0.0
2017-Oct-14 20:29N 45°26' E 012°19'0 0.0
2017-Oct-14 19:59N 45°26' E 012°19'0 0.0
2017-Oct-14 19:29N 45°26' E 012°19'0 0.0
2017-Oct-14 18:59N 45°26' E 012°19'0 0.0
2017-Oct-14 18:30N 45°26' E 012°19'0 0.0
2017-Oct-14 17:56N 45°26' E 012°19'0 0.0
2017-Oct-14 17:29N 45°26' E 012°19'0 0.0
2017-Oct-14 16:57N 45°26' E 012°19'0 0.0
2017-Oct-14 16:29N 45°26' E 012°19'0 0.0
2017-Oct-14 15:59N 45°26' E 012°19'0 0.0
2017-Oct-14 15:26N 45°26' E 012°19'1 1.4
2017-Oct-14 15:00N 45°26' E 012°19'2 4.9
2017-Oct-14 14:31N 45°26' E 012°23'4 7.7
2017-Oct-14 14:00N 45°24' E 012°28'3 4.6
2017-Oct-14 13:27N 45°24' E 012°32'0 0.0
2017-Oct-14 13:00N 45°24' E 012°32'0 0.0
2017-Oct-14 12:27N 45°24' E 012°32'0 0.0
2017-Oct-14 11:57N 45°24' E 012°32'0 0.0
2017-Oct-14 11:30N 45°24' E 012°32'0 0.0
2017-Oct-14 11:00N 45°24' E 012°32'0 0.0
2017-Oct-14 10:30N 45°24' E 012°32'0 0.0
2017-Oct-14 10:00N 45°24' E 012°32'0 0.0
2017-Oct-14 09:30N 45°24' E 012°32'0 0.0
2017-Oct-14 09:00N 45°24' E 012°32'0 0.0
2017-Oct-14 08:30N 45°24' E 012°32'0 0.0
2017-Oct-14 08:00N 45°24' E 012°32'0 0.0
2017-Oct-14 07:27N 45°24' E 012°32'0 0.0
2017-Oct-14 06:56N 45°24' E 012°32'0 0.0
2017-Oct-14 06:30N 45°24' E 012°32'0 0.0
2017-Oct-14 06:00N 45°24' E 012°32'0 0.0
2017-Oct-14 05:30N 45°24' E 012°32'3 5.5
2017-Oct-14 05:00N 45°22' E 012°33'611.0
2017-Oct-14 04:30N 45°18' E 012°39'612.6
2017-Oct-14 04:00N 45°14' E 012°45'816.3
2017-Oct-14 03:30N 45°08' E 012°53'918.1
2017-Oct-14 03:00N 45°03' E 013°04'918.3
2017-Oct-14 02:30N 44°58' E 013°15'917.8
2017-Oct-14 02:00N 44°53' E 013°25'918.0
2017-Oct-14 01:30N 44°45' E 013°32'918.0
2017-Oct-14 01:00N 44°37' E 013°39'917.8
2017-Oct-14 00:30N 44°30' E 013°46'917.8
2017-Oct-14 00:00N 44°23' E 013°53'917.7
2017-Oct-13 23:30N 44°15' E 013°60'917.7
2017-Oct-13 23:00N 44°08' E 014°06'917.4
2017-Oct-13 22:30N 44°02' E 014°16'917.5
2017-Oct-13 22:00N 43°57' E 014°25'917.7
2017-Oct-13 21:30N 43°51' E 014°34'1017.7
2017-Oct-13 20:57N 43°45' E 014°45'3718.3
2017-Oct-13 18:55N 43°20' E 015°23'21510.4
2017-Oct-12 22:11N 40°55' E 018°57'717.2
2017-Oct-12 21:48N 40°49' E 018°60'617.2
2017-Oct-12 21:26N 40°43' E 019°03'717.2
2017-Oct-12 21:00N 40°36' E 019°06'917.1
2017-Oct-12 20:30N 40°28' E 019°10'816.4
2017-Oct-12 20:00N 40°20' E 019°13'916.4
2017-Oct-12 19:27N 40°13' E 019°21'1417.5
2017-Oct-12 18:40N 40°04' E 019°35'317.2
2017-Oct-12 18:30N 40°03' E 019°37'917.2
2017-Oct-12 18:00N 39°57' E 019°46'816.8
2017-Oct-12 17:30N 39°52' E 019°54'30 2.1
2017-Oct-12 03:03N 39°24' E 020°11'618.8
2017-Oct-12 02:44N 39°19' E 020°14'193 6.1
2017-Oct-10 19:10N 37°35' E 023°42'211.9
2017-Oct-10 19:00N 37°37' E 023°42'511.1
2017-Oct-10 18:30N 37°42' E 023°40'611.2
2017-Oct-10 18:00N 37°47' E 023°37'612.2
2017-Oct-10 17:30N 37°53' E 023°37'3 6.6
2017-Oct-10 17:00N 37°56' E 023°38'0 0.4
2017-Oct-10 16:30N 37°56' E 023°38'0 0.0
2017-Oct-10 15:57N 37°56' E 023°38'0 0.0
2017-Oct-10 15:30N 37°56' E 023°38'0 0.0
2017-Oct-10 15:00N 37°56' E 023°38'0 0.0
2017-Oct-10 13:48N 37°56' E 023°38'0 0.0
2017-Oct-10 13:30N 37°56' E 023°38'0 0.0
2017-Oct-10 13:00N 37°56' E 023°38'0 0.0
2017-Oct-10 12:30N 37°56' E 023°38'0 0.0
2017-Oct-10 12:00N 37°56' E 023°38'0 0.0
2017-Oct-10 11:30N 37°56' E 023°38'0 0.0
2017-Oct-10 11:00N 37°56' E 023°38'0 0.0
2017-Oct-10 10:30N 37°56' E 023°38'0 0.0
2017-Oct-10 09:57N 37°56' E 023°38'0 0.0
2017-Oct-10 09:30N 37°56' E 023°38'0 0.0
2017-Oct-10 09:00N 37°56' E 023°38'0 0.0
2017-Oct-10 08:30N 37°56' E 023°38'0 0.0
2017-Oct-10 08:00N 37°56' E 023°38'0 0.0
2017-Oct-10 07:30N 37°56' E 023°38'0 0.0
2017-Oct-10 07:00N 37°56' E 023°38'0 0.0
2017-Oct-10 06:30N 37°56' E 023°38'0 0.0
2017-Oct-10 06:00N 37°56' E 023°38'0 0.0
2017-Oct-10 05:30N 37°56' E 023°38'0 0.5
2017-Oct-10 05:01N 37°56' E 023°38'2 3.2
2017-Oct-10 04:31N 37°55' E 023°36'0 0.1
2017-Oct-10 04:01N 37°55' E 023°36'4 8.6
2017-Oct-10 03:30N 37°52' E 023°39'918.2
2017-Oct-10 03:01N 37°44' E 023°44'917.3
2017-Oct-10 02:31N 37°35' E 023°45'918.2
2017-Oct-10 02:01N 37°26' E 023°42'32811.9
2017-Oct-08 22:26N 40°44' E 018°05'26512.7
2017-Oct-08 01:37N 44°02' E 014°06'220.3
2017-Oct-08 01:30N 44°04' E 014°04'1020.3
2017-Oct-08 01:00N 44°12' E 013°57'1020.2
2017-Oct-08 00:30N 44°21' E 013°49'1020.2
2017-Oct-08 00:00N 44°29' E 013°42'1020.2
2017-Oct-07 23:30N 44°38' E 013°34'1020.5
2017-Oct-07 23:00N 44°46' E 013°26'1020.4
2017-Oct-07 22:30N 44°55' E 013°18'1020.0
2017-Oct-07 22:00N 45°02' E 013°08'1020.2
2017-Oct-07 21:30N 45°08' E 012°57'1019.9
2017-Oct-07 21:00N 45°14' E 012°46'918.7
2017-Oct-07 20:30N 45°20' E 012°35'  
Track history (hours):
 
Tides and Currents Weather Stations Pressure Air Temp Water Temp Dewpoint Dewpoint Depression Visibility Wind Speed Wind Dir Waves Ship Positions

Costa Luminosa

Last reported at 2017-Oct-17 20:18 UTC. Time now 2017-Oct-18 09:15 UTC.
Position N 37°31' E 023°40'.

Length 294 m; draft 8 m.

Type: Passenger vessel. MMSI: 247257900.

Date/timePositionNaut miles runAvg speedWind from/ knotsBaromVisibWave heightAir tempDewpointWater temp
2017-Oct-17 20:18N 37°31' E 023°40'516.9
2017-Oct-17 20:00N 37°36' E 023°42'816.1
2017-Oct-17 19:30N 37°44' E 023°40'816.4
2017-Oct-17 19:00N 37°51' E 023°36'5 9.7
2017-Oct-17 18:31N 37°56' E 023°37'0 0.6
2017-Oct-17 17:59N 37°56' E 023°37'0 0.0
2017-Oct-17 17:29N 37°56' E 023°37'0 0.0
2017-Oct-17 16:59N 37°56' E 023°37'0 0.0
2017-Oct-17 16:29N 37°56' E 023°37'0 0.0
2017-Oct-17 15:59N 37°56' E 023°37'0 0.0
2017-Oct-17 15:29N 37°56' E 023°37'0 0.0
2017-Oct-17 14:59N 37°56' E 023°37'0 0.0
2017-Oct-17 14:29N 37°56' E 023°37'0 0.0
2017-Oct-17 13:59N 37°56' E 023°37'0 0.0
2017-Oct-17 13:29N 37°56' E 023°37'0 0.0
2017-Oct-17 12:59N 37°56' E 023°37'0 0.0
2017-Oct-17 12:29N 37°56' E 023°37'0 0.0
2017-Oct-17 11:59N 37°56' E 023°37'0 0.0
2017-Oct-17 11:17N 37°56' E 023°37'0 0.0
2017-Oct-17 10:59N 37°56' E 023°37'0 0.0
2017-Oct-17 10:29N 37°56' E 023°37'0 0.0
2017-Oct-17 09:59N 37°56' E 023°37'0 0.6
2017-Oct-17 09:30N 37°56' E 023°37'1 2.0
2017-Oct-17 09:00N 37°55' E 023°37'815.1
2017-Oct-17 08:31N 37°48' E 023°40'918.3
2017-Oct-17 08:00N 37°40' E 023°45'918.0
2017-Oct-17 07:30N 37°31' E 023°43'918.0
2017-Oct-17 06:59N 37°22' E 023°40'4017.6
2017-Oct-17 04:45N 36°44' E 023°24'7015.4
2017-Oct-17 00:12N 36°30' E 021°59'419.5
2017-Oct-17 00:01N 36°31' E 021°55'1019.7
2017-Oct-16 23:31N 36°35' E 021°44'5519.0
2017-Oct-16 20:38N 37°11' E 020°52'218.9
2017-Oct-16 20:31N 37°13' E 020°51'2320.4
2017-Oct-16 19:22N 37°33' E 020°36'720.9
2017-Oct-16 19:01N 37°39' E 020°31'1121.2
2017-Oct-16 18:30N 37°49' E 020°24'5920.9
2017-Oct-16 15:42N 38°39' E 019°47'17520.7
2017-Oct-16 07:16N 40°59' E 017°31'621.4
2017-Oct-16 07:01N 41°02' E 017°24'26 4.4
2017-Oct-16 01:15N 41°09' E 016°51'2 6.6
2017-Oct-16 01:00N 41°10' E 016°50'816.7
2017-Oct-16 00:30N 41°17' E 016°45'3821.0
2017-Oct-15 22:41N 41°51' E 016°20'422.2
2017-Oct-15 22:30N 41°54' E 016°18'3222.0
2017-Oct-15 21:02N 42°20' E 015°51'121.1
2017-Oct-15 21:00N 42°20' E 015°51'1121.5
2017-Oct-15 20:30N 42°29' E 015°42'1121.4
2017-Oct-15 20:00N 42°38' E 015°33'1121.5
2017-Oct-15 19:29N 42°47' E 015°24'1221.5
2017-Oct-15 18:55N 42°56' E 015°15'921.5
2017-Oct-15 18:30N 43°04' E 015°07'1121.8
2017-Oct-15 18:00N 43°12' E 014°58'1121.7
2017-Oct-15 17:30N 43°21' E 014°49'1121.7
2017-Oct-15 17:00N 43°29' E 014°40'1121.4
2017-Oct-15 16:30N 43°38' E 014°31'1121.3
2017-Oct-15 16:00N 43°47' E 014°22'1121.2
2017-Oct-15 15:30N 43°55' E 014°14'1121.2
2017-Oct-15 15:00N 44°03' E 014°05'2221.4
2017-Oct-15 14:00N 44°21' E 013°48'1121.3
2017-Oct-15 13:30N 44°30' E 013°40'1121.3
2017-Oct-15 13:00N 44°39' E 013°32'1121.3
2017-Oct-15 12:30N 44°48' E 013°24'1121.1
2017-Oct-15 12:00N 44°57' E 013°16'1121.0
2017-Oct-15 11:30N 45°04' E 013°04'1020.9
2017-Oct-15 11:00N 45°10' E 012°53'1020.9
2017-Oct-15 10:30N 45°17' E 012°41'918.9
2017-Oct-15 10:00N 45°23' E 012°31'511.0
2017-Oct-15 09:30N 45°26' E 012°24'3 5.2
2017-Oct-15 09:00N 45°26' E 012°21'2 3.2
2017-Oct-15 08:30N 45°26' E 012°19'0 0.0
2017-Oct-15 08:00N 45°26' E 012°19'0 0.0
2017-Oct-15 07:30N 45°26' E 012°19'0 0.0
2017-Oct-15 06:59N 45°26' E 012°19'0 0.0
2017-Oct-15 06:29N 45°26' E 012°19'0 0.0
2017-Oct-15 05:57N 45°26' E 012°19'0 0.0
2017-Oct-15 05:29N 45°26' E 012°19'0 0.0
2017-Oct-15 04:59N 45°26' E 012°19'0 0.0
2017-Oct-15 04:29N 45°26' E 012°19'0 0.0
2017-Oct-15 03:59N 45°26' E 012°19'0 0.0
2017-Oct-15 03:29N 45°26' E 012°19'0 0.0
2017-Oct-15 02:59N 45°26' E 012°19'0 0.0
2017-Oct-15 02:30N 45°26' E 012°19'0 0.0
2017-Oct-15 02:00N 45°26' E 012°19'0 0.0
2017-Oct-15 01:27N 45°26' E 012°19'0 0.0
2017-Oct-15 01:00N 45°26' E 012°19'0 0.0
2017-Oct-15 00:29N 45°26' E 012°19'0 0.0
2017-Oct-15 00:00N 45°26' E 012°19'0 0.0
2017-Oct-14 23:29N 45°26' E 012°19'0 0.0
2017-Oct-14 23:00N 45°26' E 012°19'0 0.0
2017-Oct-14 22:30N 45°26' E 012°19'0 0.0
2017-Oct-14 21:59N 45°26' E 012°19'0 0.0
2017-Oct-14 21:29N 45°26' E 012°19'0 0.0
2017-Oct-14 21:00N 45°26' E 012°19'0 0.0
2017-Oct-14 20:29N 45°26' E 012°19'0 0.0
2017-Oct-14 19:59N 45°26' E 012°19'0 0.0
2017-Oct-14 19:29N 45°26' E 012°19'0 0.0
2017-Oct-14 18:59N 45°26' E 012°19'0 0.0
2017-Oct-14 18:30N 45°26' E 012°19'0 0.0
2017-Oct-14 17:56N 45°26' E 012°19'0 0.0
2017-Oct-14 17:29N 45°26' E 012°19'0 0.0
2017-Oct-14 16:57N 45°26' E 012°19'0 0.0
2017-Oct-14 16:29N 45°26' E 012°19'0 0.0
2017-Oct-14 15:59N 45°26' E 012°19'0 0.0
2017-Oct-14 15:26N 45°26' E 012°19'1 1.4
2017-Oct-14 15:00N 45°26' E 012°19'2 4.9
2017-Oct-14 14:31N 45°26' E 012°23'4 7.7
2017-Oct-14 14:00N 45°24' E 012°28'3 4.6
2017-Oct-14 13:27N 45°24' E 012°32'0 0.0
2017-Oct-14 13:00N 45°24' E 012°32'0 0.0
2017-Oct-14 12:27N 45°24' E 012°32'0 0.0
2017-Oct-14 11:57N 45°24' E 012°32'0 0.0
2017-Oct-14 11:30N 45°24' E 012°32'0 0.0
2017-Oct-14 11:00N 45°24' E 012°32'0 0.0
2017-Oct-14 10:30N 45°24' E 012°32'0 0.0
2017-Oct-14 10:00N 45°24' E 012°32'0 0.0
2017-Oct-14 09:30N 45°24' E 012°32'0 0.0
2017-Oct-14 09:00N 45°24' E 012°32'0 0.0
2017-Oct-14 08:30N 45°24' E 012°32'0 0.0
2017-Oct-14 08:00N 45°24' E 012°32'0 0.0
2017-Oct-14 07:27N 45°24' E 012°32'0 0.0
2017-Oct-14 06:56N 45°24' E 012°32'0 0.0
2017-Oct-14 06:30N 45°24' E 012°32'0 0.0
2017-Oct-14 06:00N 45°24' E 012°32'0 0.0
2017-Oct-14 05:30N 45°24' E 012°32'3 5.5
2017-Oct-14 05:00N 45°22' E 012°33'611.0
2017-Oct-14 04:30N 45°18' E 012°39'612.6
2017-Oct-14 04:00N 45°14' E 012°45'816.3
2017-Oct-14 03:30N 45°08' E 012°53'918.1
2017-Oct-14 03:00N 45°03' E 013°04'918.3
2017-Oct-14 02:30N 44°58' E 013°15'917.8
2017-Oct-14 02:00N 44°53' E 013°25'918.0
2017-Oct-14 01:30N 44°45' E 013°32'918.0
2017-Oct-14 01:00N 44°37' E 013°39'917.8
2017-Oct-14 00:30N 44°30' E 013°46'917.8
2017-Oct-14 00:00N 44°23' E 013°53'917.7
2017-Oct-13 23:30N 44°15' E 013°60'917.7
2017-Oct-13 23:00N 44°08' E 014°06'917.4
2017-Oct-13 22:30N 44°02' E 014°16'917.5
2017-Oct-13 22:00N 43°57' E 014°25'917.7
2017-Oct-13 21:30N 43°51' E 014°34'1017.7
2017-Oct-13 20:57N 43°45' E 014°45'3718.3
2017-Oct-13 18:55N 43°20' E 015°23'21510.4
2017-Oct-12 22:11N 40°55' E 018°57'717.2
2017-Oct-12 21:48N 40°49' E 018°60'617.2
2017-Oct-12 21:26N 40°43' E 019°03'717.2
2017-Oct-12 21:00N 40°36' E 019°06'917.1
2017-Oct-12 20:30N 40°28' E 019°10'816.4
2017-Oct-12 20:00N 40°20' E 019°13'916.4
2017-Oct-12 19:27N 40°13' E 019°21'1417.5
2017-Oct-12 18:40N 40°04' E 019°35'317.2
2017-Oct-12 18:30N 40°03' E 019°37'917.2
2017-Oct-12 18:00N 39°57' E 019°46'816.8
2017-Oct-12 17:30N 39°52' E 019°54'30 2.1
2017-Oct-12 03:03N 39°24' E 020°11'618.8
2017-Oct-12 02:44N 39°19' E 020°14'193 6.1
2017-Oct-10 19:10N 37°35' E 023°42'211.9
2017-Oct-10 19:00N 37°37' E 023°42'511.1
2017-Oct-10 18:30N 37°42' E 023°40'611.2
2017-Oct-10 18:00N 37°47' E 023°37'612.2
2017-Oct-10 17:30N 37°53' E 023°37'3 6.6
2017-Oct-10 17:00N 37°56' E 023°38'0 0.4
2017-Oct-10 16:30N 37°56' E 023°38'0 0.0
2017-Oct-10 15:57N 37°56' E 023°38'0 0.0
2017-Oct-10 15:30N 37°56' E 023°38'0 0.0
2017-Oct-10 15:00N 37°56' E 023°38'0 0.0
2017-Oct-10 13:48N 37°56' E 023°38'0 0.0
2017-Oct-10 13:30N 37°56' E 023°38'0 0.0
2017-Oct-10 13:00N 37°56' E 023°38'0 0.0
2017-Oct-10 12:30N 37°56' E 023°38'0 0.0
2017-Oct-10 12:00N 37°56' E 023°38'0 0.0
2017-Oct-10 11:30N 37°56' E 023°38'0 0.0
2017-Oct-10 11:00N 37°56' E 023°38'0 0.0
2017-Oct-10 10:30N 37°56' E 023°38'0 0.0
2017-Oct-10 09:57N 37°56' E 023°38'0 0.0
2017-Oct-10 09:30N 37°56' E 023°38'0 0.0
2017-Oct-10 09:00N 37°56' E 023°38'0 0.0
2017-Oct-10 08:30N 37°56' E 023°38'0 0.0
2017-Oct-10 08:00N 37°56' E 023°38'0 0.0
2017-Oct-10 07:30N 37°56' E 023°38'0 0.0
2017-Oct-10 07:00N 37°56' E 023°38'0 0.0
2017-Oct-10 06:30N 37°56' E 023°38'0 0.0
2017-Oct-10 06:00N 37°56' E 023°38'0 0.0
2017-Oct-10 05:30N 37°56' E 023°38'0 0.5
2017-Oct-10 05:01N 37°56' E 023°38'2 3.2
2017-Oct-10 04:31N 37°55' E 023°36'0 0.1
2017-Oct-10 04:01N 37°55' E 023°36'4 8.6
2017-Oct-10 03:30N 37°52' E 023°39'918.2
2017-Oct-10 03:01N 37°44' E 023°44'917.3
2017-Oct-10 02:31N 37°35' E 023°45'918.2
2017-Oct-10 02:01N 37°26' E 023°42'32811.9
2017-Oct-08 22:26N 40°44' E 018°05'26512.7
2017-Oct-08 01:37N 44°02' E 014°06'220.3
2017-Oct-08 01:30N 44°04' E 014°04'1020.3
2017-Oct-08 01:00N 44°12' E 013°57'1020.2
2017-Oct-08 00:30N 44°21' E 013°49'1020.2
2017-Oct-08 00:00N 44°29' E 013°42'1020.2
2017-Oct-07 23:30N 44°38' E 013°34'1020.5
2017-Oct-07 23:00N 44°46' E 013°26'1020.4
2017-Oct-07 22:30N 44°55' E 013°18'1020.0
2017-Oct-07 22:00N 45°02' E 013°08'1020.2
2017-Oct-07 21:30N 45°08' E 012°57'1019.9
2017-Oct-07 21:00N 45°14' E 012°46'918.7
2017-Oct-07 20:30N 45°20' E 012°35'  

Dump ship's entire track history